Terminal Aerodrome Forecast
Issued by NWS

Home | Current Version | Previous Version | Graphics & Text | Print | Product List | Glossary Off
Versions: 1 2 3 4 5 6 7 8 9 10 11 12 13 14 15 16 17 18 19 20 21 22 23 24 25 26 27 28 29

374
FTUS43 KDDC 251735
TAFGCK
TAF
KGCK 251735Z 2518/2618 01015KT P6SM OVC015
      TEMPO 2518/2520 SCT015 OVC035
     FM252300 03012KT P6SM VCSH OVC040
     FM260600 01018G27KT P6SM VCSH OVC015
     FM260700 01019G28KT P6SM VCSH OVC020
     FM261000 36020G30KT P6SM OVC030
     FM261100 35019G29KT P6SM OVC040=

USA.gov is the U.S. government's official web portal to all federal, state and local government web resources and services.